Hilltop, New Jersey
Current Conditions -  °F | °C
As of 11:54 PM on Saturday 22 Nov 2014 (Local Time) from KPHL Reporting Station
Broken Clouds Broken Clouds  
Wind Chill: 37°   Ceiling: 12000
Heat Index: 44°   Visibility: 10mi
Dew Point: 23°   Wind: 15mph
Humidity: 43%   Direction: 230°SW
Pressure: 30.26"   Gusts: NA
Location:  39.778°N, 75.0552°W
Report Text: KPHL 230454Z 23013KT 10SM SCT090 BKN120 07/M05 A3026 RMK AO2 SLP245 T00671050 400781050 $
Loading
Personal Weather Stations






























Interactive Weather Map New forecast layout! Learn more

10-Day Weather Forecast

Advertisements
Track Severe Weather on mobile